Skip Navigation Links Skip Navigation Links

Current Weather

Iki Airport, Japan

For information only: do not use for flight planning or navigation.
Latest weather
Observation time Saturday, January 22, 2022 4:00 AM JST
Local time Saturday, January 22, 2022 4:53 AM JST
Flight conditions Visual Meteorological Conditions
Winds
Wind direction East (90°)
Winds variable from 40° to 110°
Wind speed 12 mph
Visibility 6.2 mi.
Sky condition
Ceiling 17,000 ft. broken clouds
Cloud layer few clouds 3,400 ft.
Cloud layer broken clouds 17,000 ft.
Temperature 45°F
Dewpoint 34°F
Altimeter 30.30 in.Hg
Derived measurements
Relative humidity 66%
Wind chill 39°F
Density altitude -1282 ft.
Remarks
Fully automated report.
METAR RJDB 211900Z AUTO 09010KT 040V110 9999 FEW034 BKN170 07/01 Q1026

Settings

Location code

InnerDrive.Weather 4.0.6770.0 Release CLR 4.0.30319.42000
Copyright ©2018 Inner Drive Technology. All rights reserved. Portions Copyright ©1986-2018 David Braverman.

Find weather

Site navigation


Skip Navigation Links

Place info

Page info

PayPal - The safer, easier way to pay online!

Return home.

Copyright ©2022 Inner Drive Technology. Purveyors of fine, hand-crafted computer software. Page printed 2022-01-21T19:53:23 UTC.